Airfield :
LOGIN :

Register | Disclaimer

   EN    FR    IT 

 










Legend :    VFR   Marginal VFR   IFR   Intensive IFR   Very Intensive IFR
Visi :
Ceiling :
>= 8 km
>= 3000ft
5 to 8 km
1000 to 3000 ft
1500m to 5 km
500 to 1000 ft
800 to 1500m
200 to 500 ft
< 800m
< 200 ft
Symbols :   Thunderstorms  Fog  Heavy snow  Heavy precipitations  Wind > 20 kt
SIGMETs :     Misc.  Thunderstorms  Icing  Turbulence  Mountain Waves  Volcanic Ashes







- Airport Elevation : 15 ft
- IATA code : BHD
- Download approach charts


EGAC - George Best Belfast City

CURRENT METAR :
  • 152120Z AUTO 19018KT 9999 NCD 12/09 Q1011

EXPIRED METARs :
  • 152050Z AUTO 19017KT 9999 SCT023/// 11/09 Q1011
  • 152020Z AUTO 19011KT 9999 BKN017/// BKN026/// 11/09 Q1011
  • 151950Z AUTO 18012KT 9999 BKN016/// 11/09 Q1012
  • 151920Z AUTO 16012KT 9000 OVC017/// 10/09 Q1012
  • 151850Z AUTO 18009KT 8000 BKN019/// BKN023/// 10/08 Q1013

TAF TAF EGAC
Valid from the 15 at 18:00 until the 16 at 03:00 UTC


151700Z 1518/1603 17010KT 9999 FEW014 SCT025
PROB30
TEMPO 1518/1521 9000 BKN014
BECMG 1519/1522 20016G26KT
ATIS : +44 02890 935 124
No reported NOTAMs for that airfield.
1 SIGMET reported for the Scottish FIR (EGPX) :
 
Severe mountain waves
EGPX SIGMET 06 VALID 151900/152300 EGRR
EGPX SCOTTISH FIR SEV MTW FCST WI N5715 W00546 - N5802 W00405 - N5809 W00116 - N5500 W00027 - N5500 W00504 - N5715 W00546 FL030/260 STNR WKN=



MET'MAP, your aeronautical weather chart ! - Copyright ORBIFLY December 2007 - Disclaimer

ORBIFLY MET'MAP TEAM :

Programming & Development : Alexandra Zaïnal
Concept & Development : Baudouin d'Aumeries
Co-Development & Prog : Marc-Olivier Méhu
Technical & hardware support : Manuel Goepfert

Contact : metmap@orbifly.com




SOURCES & CREDITS :

   NOAA